Time;durP1;ratioP1;P1;durP2;ratioP2;P2;SDS_P1;SDS_P2;PMS_P1;PMS_P2;Temp;Humidity;BMP_temperature;BMP_pressure;BME280_temperature;BME280_humidity;BME280_pressure;Samples;Min_cycle;Max_cycle;Signal;HPM_P1;HPM_P2
2022/09/24 00:01:11;;;;;;;40.40;30.63;;;13.60;99.90;;;;;;5036653;28;20133;-72
2022/09/24 00:03:38;;;;;;;42.13;30.80;;;13.60;99.90;;;;;;5031155;28;20556;-72
2022/09/24 00:06:05;;;;;;;45.67;32.78;;;13.60;99.90;;;;;;5028178;28;20064;-71
2022/09/24 00:08:31;;;;;;;40.22;31.73;;;13.60;99.90;;;;;;5028910;28;20068;-71
2022/09/24 00:11:01;;;;;;;39.25;30.75;;;13.60;99.90;;;;;;5027230;28;20041;-71
2022/09/24 00:13:27;;;;;;;38.95;30.38;;;13.60;99.90;;;;;;5011351;28;20049;-72
2022/09/24 00:15:53;;;;;;;38.88;31.98;;;13.60;99.90;;;;;;5028727;28;20050;-71
2022/09/24 00:18:20;;;;;;;39.30;31.48;;;13.60;99.90;;;;;;5035619;28;20466;-72
2022/09/24 00:20:46;;;;;;;43.33;32.53;;;13.60;99.90;;;;;;5021059;28;20080;-72
2022/09/24 00:23:11;;;;;;;44.70;33.10;;;13.60;99.90;;;;;;5040694;28;20041;-72
2022/09/24 00:28:29;;;;;;;;;;;13.60;99.90;;;;;;5032179;28;20055;-72
2022/09/24 00:30:57;;;;;;;39.80;31.25;;;13.60;99.90;;;;;;5034631;28;20293;-72
2022/09/24 00:33:24;;;;;;;41.72;31.52;;;13.60;99.90;;;;;;5038125;28;20120;-72
2022/09/24 00:35:51;;;;;;;49.70;34.90;;;13.60;99.90;;;;;;5040038;28;20037;-72
2022/09/24 00:38:17;;;;;;;40.72;32.58;;;13.60;99.90;;;;;;5034185;28;20033;-72
2022/09/24 00:40:43;;;;;;;43.53;33.40;;;13.60;99.90;;;;;;5017048;28;20049;-71
2022/09/24 00:43:33;;;;;;;43.97;33.75;;;13.60;99.90;;;;;;5040069;28;20037;-71
2022/09/24 00:46:08;;;;;;;40.75;33.10;;;13.60;99.90;;;;;;5035612;28;20037;-72
2022/09/24 00:48:36;;;;;;;44.22;33.90;;;13.60;99.90;;;;;;5043848;28;20045;-71
2022/09/24 00:51:05;;;;;;;50.13;36.88;;;13.60;99.90;;;;;;5040146;28;20546;-72
2022/09/24 00:53:32;;;;;;;45.70;36.17;;;13.60;99.90;;;;;;5022954;28;20115;-72
2022/09/24 00:56:00;;;;;;;44.20;35.60;;;13.60;99.90;;;;;;5028672;28;20070;-71
2022/09/24 00:58:28;;;;;;;46.33;35.53;;;13.60;99.90;;;;;;5030777;28;20049;-72
2022/09/24 01:01:00;;;;;;;46.15;36.33;;;13.60;99.90;;;;;;5027046;28;20053;-71
2022/09/24 01:03:27;;;;;;;44.03;35.03;;;13.60;99.90;;;;;;5045767;28;20674;-72
2022/09/24 01:05:55;;;;;;;44.92;35.28;;;13.60;99.90;;;;;;5022447;28;20504;-72
2022/09/24 01:08:21;;;;;;;47.85;35.70;;;13.70;99.90;;;;;;5037807;28;20040;-72
2022/09/24 01:11:24;;;;;;;47.85;39.78;;;13.60;99.90;;;;;;5030277;28;20025;-71
2022/09/24 01:14:10;;;;;;;50.97;38.55;;;13.70;99.90;;;;;;5036115;28;20037;-71
2022/09/24 01:16:56;;;;;;;52.85;40.08;;;13.70;99.90;;;;;;5061538;28;20059;-72
2022/09/24 01:20:13;;;;;;;50.00;38.50;;;13.70;99.90;;;;;;5021408;28;20597;-71
2022/09/24 01:22:48;;;;;;;47.67;38.70;;;13.70;99.90;;;;;;4985342;28;20049;-71
2022/09/24 01:25:29;;;;;;;51.45;39.17;;;13.70;99.90;;;;;;5044232;28;20092;-72
2022/09/24 01:28:04;;;;;;;52.05;40.30;;;13.70;99.90;;;;;;5031035;28;20490;-72
2022/09/24 01:30:33;;;;;;;52.50;38.17;;;13.70;99.90;;;;;;5029141;28;20046;-72
2022/09/24 01:33:07;;;;;;;52.33;41.92;;;13.70;99.90;;;;;;5027265;28;20449;-71
2022/09/24 01:35:46;;;;;;;53.30;40.45;;;13.70;99.90;;;;;;5032716;28;20041;-72
2022/09/24 01:38:26;;;;;;;53.60;40.08;;;13.70;99.90;;;;;;5027716;28;20069;-72
2022/09/24 01:40:56;;;;;;;52.70;39.63;;;13.70;99.90;;;;;;5033642;28;20064;-71
2022/09/24 01:43:24;;;;;;;54.75;41.88;;;13.70;99.90;;;;;;5029880;28;20296;-71
2022/09/24 01:45:51;;;;;;;58.05;43.03;;;13.70;99.90;;;;;;5032438;28;20041;-71
2022/09/24 01:48:20;;;;;;;52.75;43.15;;;13.70;99.90;;;;;;5034091;28;20163;-71
2022/09/24 01:51:21;;;;;;;55.53;42.72;;;13.70;99.90;;;;;;5024205;28;20510;-71
2022/09/24 01:53:51;;;;;;;58.88;44.15;;;13.70;99.90;;;;;;5025876;28;20136;-72
2022/09/24 01:56:29;;;;;;;61.22;44.45;;;13.70;99.90;;;;;;5028639;28;20037;-71
2022/09/24 01:59:13;;;;;;;53.30;41.90;;;13.70;99.90;;;;;;5035810;28;21492;-72
2022/09/24 02:01:57;;;;;;;58.80;46.92;;;13.70;99.90;;;;;;5032149;28;20041;-71
2022/09/24 02:04:26;;;;;;;56.75;42.75;;;13.70;99.90;;;;;;5003882;28;20541;-72
2022/09/24 02:07:06;;;;;;;58.88;46.53;;;13.80;99.90;;;;;;5026200;28;20051;-71
2022/09/24 02:09:36;;;;;;;53.55;42.70;;;13.70;99.90;;;;;;5040177;28;20041;-71
2022/09/24 02:12:08;;;;;;;60.38;45.33;;;13.80;99.90;;;;;;5018966;28;20053;-72
2022/09/24 02:14:39;;;;;;;59.30;43.10;;;13.70;99.90;;;;;;5021092;28;20042;-72
2022/09/24 02:17:06;;;;;;;52.08;42.65;;;13.70;99.90;;;;;;5021568;28;20446;-70
2022/09/24 02:19:36;;;;;;;59.08;44.97;;;13.70;99.90;;;;;;5032199;28;20045;-71
2022/09/24 02:22:05;;;;;;;52.97;41.73;;;13.70;99.90;;;;;;5023837;28;20053;-72
2022/09/24 02:24:55;;;;;;;51.67;41.72;;;13.70;99.90;;;;;;5023456;28;20200;-71
2022/09/24 02:27:26;;;;;;;49.45;38.67;;;13.70;99.90;;;;;;5024568;28;20252;-72
2022/09/24 02:29:52;;;;;;;47.47;36.92;;;13.70;99.90;;;;;;5038593;28;20056;-72
2022/09/24 02:32:19;;;;;;;44.63;36.60;;;13.70;99.90;;;;;;5024818;28;20127;-72
2022/09/24 02:34:50;;;;;;;41.08;34.05;;;13.70;99.90;;;;;;5017299;28;20061;-72
2022/09/24 02:37:16;;;;;;;41.25;34.90;;;13.70;99.90;;;;;;5017991;28;20418;-72
2022/09/24 02:39:42;;;;;;;40.00;32.53;;;13.70;99.90;;;;;;5021094;28;20049;-72
2022/09/24 02:42:13;;;;;;;40.28;31.95;;;13.70;99.90;;;;;;5026460;28;20494;-72
2022/09/24 02:44:39;;;;;;;40.00;31.23;;;13.70;99.90;;;;;;5018797;28;20045;-72
2022/09/24 02:47:06;;;;;;;37.70;29.88;;;13.70;99.90;;;;;;5025987;28;20119;-71
2022/09/24 02:49:32;;;;;;;38.17;29.75;;;13.70;99.90;;;;;;5003380;28;20049;-72
2022/09/24 02:51:58;;;;;;;34.95;30.13;;;13.70;99.90;;;;;;5038464;28;20111;-72
2022/09/24 02:54:24;;;;;;;33.97;28.00;;;13.70;99.90;;;;;;5019116;28;20551;-72
2022/09/24 02:56:50;;;;;;;30.50;26.63;;;13.70;99.90;;;;;;5022896;28;20046;-72
2022/09/24 02:59:18;;;;;;;31.38;26.95;;;13.70;99.90;;;;;;5022879;28;20033;-72
2022/09/24 03:01:44;;;;;;;33.75;28.02;;;13.70;99.90;;;;;;5025477;28;20102;-71
2022/09/24 03:04:10;;;;;;;30.63;26.88;;;13.70;99.90;;;;;;5024810;28;20044;-71
2022/09/24 03:06:36;;;;;;;30.20;25.08;;;13.80;99.90;;;;;;5030066;28;20116;-71
2022/09/24 03:09:03;;;;;;;30.30;25.73;;;13.80;99.90;;;;;;5013981;28;20151;-70
2022/09/24 03:11:30;;;;;;;30.80;25.58;;;13.70;99.90;;;;;;5019066;28;20048;-71
2022/09/24 03:13:56;;;;;;;28.88;25.42;;;13.80;99.90;;;;;;5019486;28;20487;-71
2022/09/24 03:16:22;;;;;;;29.42;25.17;;;13.80;99.90;;;;;;5022698;28;20037;-71
2022/09/24 03:18:48;;;;;;;29.33;25.05;;;13.80;99.90;;;;;;5020902;28;20574;-70
2022/09/24 03:21:16;;;;;;;25.02;19.55;;;13.80;99.90;;;;;;5019475;28;20053;-71
2022/09/24 03:23:42;;;;;;;24.13;18.63;;;13.80;99.90;;;;;;5024752;28;20076;-71
2022/09/24 03:26:08;;;;;;;23.77;19.50;;;13.80;99.90;;;;;;5026545;28;21651;-70
2022/09/24 03:28:33;;;;;;;25.42;17.73;;;13.80;99.90;;;;;;5022157;28;20132;-70
2022/09/24 03:30:59;;;;;;;26.00;17.67;;;13.80;99.90;;;;;;5016245;28;20147;-71
2022/09/24 03:33:26;;;;;;;24.48;19.10;;;13.80;99.90;;;;;;5049295;28;20573;-71
2022/09/24 03:36:32;;;;;;;30.65;18.50;;;13.80;99.90;;;;;;5035416;28;20064;-71
2022/09/24 03:38:58;;;;;;;22.65;17.73;;;13.80;99.90;;;;;;4998271;28;20609;-71
2022/09/24 03:41:26;;;;;;;21.75;17.88;;;13.80;99.90;;;;;;5012364;28;20041;-70
2022/09/24 03:43:52;;;;;;;21.08;18.20;;;13.90;99.90;;;;;;5039415;28;20400;-71
2022/09/24 03:46:18;;;;;;;20.40;16.75;;;13.90;99.90;;;;;;5008332;28;20755;-72
2022/09/24 03:48:46;;;;;;;20.50;17.40;;;13.80;99.90;;;;;;5026889;28;20042;-71
2022/09/24 03:51:14;;;;;;;19.27;16.13;;;13.90;99.90;;;;;;5030413;28;20041;-71
2022/09/24 03:53:40;;;;;;;22.77;17.63;;;13.90;99.90;;;;;;5044290;28;20060;-71
2022/09/24 03:56:07;;;;;;;19.60;16.88;;;13.90;99.90;;;;;;5013509;28;20088;-71
2022/09/24 03:58:37;;;;;;;19.90;16.63;;;13.90;99.90;;;;;;5028253;28;20136;-71
2022/09/24 04:01:09;;;;;;;19.30;16.52;;;13.90;99.90;;;;;;5031029;28;20045;-70
2022/09/24 04:03:35;;;;;;;20.77;15.88;;;13.90;99.90;;;;;;5026494;28;20077;-70
2022/09/24 04:06:01;;;;;;;23.40;17.13;;;13.90;99.90;;;;;;5032117;28;20045;-70
2022/09/24 04:08:26;;;;;;;18.48;15.48;;;13.80;99.90;;;;;;5026311;28;20194;-70
2022/09/24 04:10:54;;;;;;;22.60;16.65;;;13.90;99.90;;;;;;5024298;28;20073;-71
2022/09/24 04:13:20;;;;;;;21.77;16.10;;;13.90;99.90;;;;;;5029465;28;20033;-70
2022/09/24 04:15:47;;;;;;;21.55;16.63;;;13.90;99.90;;;;;;5037393;28;20048;-71
2022/09/24 04:18:13;;;;;;;19.88;15.50;;;13.90;99.90;;;;;;5031449;28;20065;-70
2022/09/24 04:20:40;;;;;;;20.17;15.00;;;13.90;99.90;;;;;;5035057;28;20045;-70
2022/09/24 04:23:06;;;;;;;22.60;15.65;;;13.90;99.90;;;;;;5027023;28;20053;-70
2022/09/24 04:25:32;;;;;;;19.38;15.15;;;13.90;99.90;;;;;;5011478;28;20045;-70
2022/09/24 04:28:04;;;;;;;23.98;15.07;;;13.90;99.90;;;;;;5031044;28;20395;-71
2022/09/24 04:30:30;;;;;;;;;;;13.90;99.90;;;;;;5028126;28;20068;-71
2022/09/24 04:32:59;;;;;;;17.85;11.80;;;13.90;99.90;;;;;;5040777;28;20293;-70
2022/09/24 04:35:26;;;;;;;18.55;11.07;;;13.90;99.90;;;;;;5032970;28;20037;-71
2022/09/24 04:37:52;;;;;;;15.35;8.45;;;13.90;99.90;;;;;;5029645;28;20049;-70
2022/09/24 04:40:18;;;;;;;16.00;6.80;;;13.90;99.90;;;;;;5033288;28;20033;-71
2022/09/24 04:42:45;;;;;;;11.23;3.15;;;13.90;99.90;;;;;;5033353;28;20120;-70
2022/09/24 04:45:13;;;;;;;13.25;2.60;;;13.90;99.90;;;;;;5029028;28;20127;-71
2022/09/24 04:47:41;;;;;;;13.05;2.38;;;13.90;99.90;;;;;;5036061;28;20045;-71
2022/09/24 04:50:10;;;;;;;11.50;1.88;;;13.90;99.90;;;;;;5024633;28;20038;-71
2022/09/24 04:52:36;;;;;;;14.32;3.33;;;13.90;99.90;;;;;;5028918;28;20067;-71
2022/09/24 04:55:03;;;;;;;15.98;2.00;;;13.80;99.90;;;;;;5032893;28;20033;-71
2022/09/24 04:57:35;;;;;;;12.40;1.70;;;13.80;99.90;;;;;;5027303;28;20060;-71
2022/09/24 05:00:04;;;;;;;14.85;1.80;;;13.80;99.90;;;;;;5023911;28;20775;-70
2022/09/24 05:02:30;;;;;;;13.77;2.08;;;13.80;99.90;;;;;;5024202;28;20498;-71
2022/09/24 05:04:55;;;;;;;15.27;1.77;;;13.80;99.90;;;;;;5024275;28;20103;-71
2022/09/24 05:07:21;;;;;;;14.13;1.80;;;13.80;99.90;;;;;;5026355;28;20127;-71
2022/09/24 05:09:47;;;;;;;12.75;2.00;;;13.80;99.90;;;;;;5030348;28;20106;-71
2022/09/24 05:12:13;;;;;;;10.98;1.50;;;13.80;99.90;;;;;;5034356;28;20051;-71
2022/09/24 05:14:38;;;;;;;14.25;1.83;;;13.70;99.90;;;;;;5029689;28;20056;-72
2022/09/24 05:17:04;;;;;;;13.95;1.90;;;13.70;99.90;;;;;;5029921;28;20041;-72
2022/09/24 05:19:30;;;;;;;12.75;2.22;;;13.70;99.90;;;;;;5032159;28;20041;-71
2022/09/24 05:21:56;;;;;;;14.30;1.80;;;13.90;99.90;;;;;;5034324;28;20038;-71
2022/09/24 05:24:21;;;;;;;15.02;2.92;;;13.70;99.90;;;;;;5029983;28;20124;-71
2022/09/24 05:29:31;;;;;;;10.80;1.85;;;13.70;99.90;;;;;;5020306;28;20482;-71
2022/09/24 05:31:59;;;;;;;11.30;1.92;;;13.70;99.90;;;;;;5008468;28;20042;-71
2022/09/24 05:34:25;;;;;;;12.10;1.83;;;13.70;99.90;;;;;;5057301;28;20107;-71
2022/09/24 05:36:50;;;;;;;17.42;3.08;;;13.70;99.90;;;;;;5021571;28;20045;-70
2022/09/24 05:39:16;;;;;;;14.60;2.50;;;13.70;99.90;;;;;;5025473;28;20071;-71
2022/09/24 05:41:42;;;;;;;14.10;2.22;;;13.70;99.90;;;;;;5024344;28;20051;-70
2022/09/24 05:44:09;;;;;;;13.65;2.03;;;13.70;99.90;;;;;;5025728;28;20503;-71
2022/09/24 05:46:36;;;;;;;14.80;2.75;;;13.70;99.90;;;;;;5040596;28;20041;-70
2022/09/24 05:49:04;;;;;;;12.98;1.90;;;13.70;99.90;;;;;;5026831;28;20041;-71
2022/09/24 05:51:30;;;;;;;11.57;1.88;;;13.60;99.90;;;;;;5024012;28;20045;-71
2022/09/24 05:53:56;;;;;;;14.93;2.83;;;13.70;99.90;;;;;;5028167;28;20048;-71
2022/09/24 05:56:22;;;;;;;10.82;2.25;;;13.60;99.90;;;;;;5016277;28;20076;-70
2022/09/24 05:58:49;;;;;;;16.23;2.08;;;13.70;99.90;;;;;;5029046;28;20489;-71
2022/09/24 06:01:15;;;;;;;15.25;2.15;;;13.60;99.90;;;;;;5028522;28;20111;-71
2022/09/24 06:03:41;;;;;;;13.38;1.80;;;13.70;99.90;;;;;;5024592;28;20048;-71
2022/09/24 06:06:06;;;;;;;15.65;1.80;;;13.60;99.90;;;;;;5008445;28;20136;-71
2022/09/24 06:08:32;;;;;;;17.10;2.03;;;13.70;99.90;;;;;;5021144;28;20030;-71
2022/09/24 06:11:04;;;;;;;19.92;2.35;;;13.80;99.90;;;;;;5022716;28;20265;-71
2022/09/24 06:13:33;;;;;;;14.57;1.90;;;13.60;99.90;;;;;;5023111;28;20045;-71
2022/09/24 06:16:04;;;;;;;13.43;2.53;;;13.60;99.90;;;;;;5025733;28;20083;-71
2022/09/24 06:18:31;;;;;;;12.15;1.75;;;13.60;99.90;;;;;;5023205;28;20053;-71
2022/09/24 06:21:02;;;;;;;12.23;2.25;;;13.60;99.90;;;;;;5026317;28;20041;-71
2022/09/24 06:23:29;;;;;;;16.35;2.22;;;13.70;99.90;;;;;;5023554;28;20053;-70
2022/09/24 06:25:56;;;;;;;13.32;2.20;;;13.60;99.90;;;;;;5038478;28;20049;-71
2022/09/24 06:28:21;;;;;;;18.40;2.33;;;13.70;99.90;;;;;;5040928;28;20045;-71
2022/09/24 06:30:47;;;;;;;8.40;1.60;;;13.70;99.90;;;;;;5026783;28;20556;-71
2022/09/24 06:33:13;;;;;;;9.60;2.22;;;13.70;99.90;;;;;;5027038;28;20419;-70
2022/09/24 06:35:41;;;;;;;13.20;2.22;;;13.70;99.90;;;;;;5056409;28;20069;-71
2022/09/24 06:38:11;;;;;;;16.20;2.17;;;13.70;99.90;;;;;;5025025;28;20052;-72
2022/09/24 06:40:37;;;;;;;10.20;1.80;;;13.70;99.90;;;;;;5025479;28;20213;-72
2022/09/24 06:43:05;;;;;;;11.85;1.75;;;13.70;99.90;;;;;;5024636;28;20050;-72
2022/09/24 06:45:32;;;;;;;14.60;1.90;;;13.70;99.90;;;;;;5022691;28;20481;-72
2022/09/24 06:47:59;;;;;;;14.93;2.00;;;13.70;99.90;;;;;;5025746;28;20034;-72
2022/09/24 06:50:27;;;;;;;16.17;2.47;;;13.70;99.90;;;;;;5023645;28;20524;-70
2022/09/24 06:52:54;;;;;;;14.05;2.05;;;13.70;99.90;;;;;;5024775;28;20072;-72
2022/09/24 06:55:20;;;;;;;18.48;2.33;;;13.70;99.90;;;;;;5058706;28;20033;-71
2022/09/24 06:57:46;;;;;;;11.43;2.13;;;13.70;99.90;;;;;;5055744;28;20469;-72
2022/09/24 07:00:14;;;;;;;15.77;1.95;;;13.70;99.90;;;;;;5026462;28;20067;-72
2022/09/24 07:02:40;;;;;;;13.23;1.92;;;13.70;99.90;;;;;;5024754;28;20042;-71
2022/09/24 07:05:07;;;;;;;15.63;2.05;;;13.70;99.90;;;;;;5027560;28;20494;-71
2022/09/24 07:07:34;;;;;;;11.68;1.77;;;13.80;99.90;;;;;;5024407;28;20042;-72
2022/09/24 07:10:07;;;;;;;14.38;2.03;;;13.80;99.90;;;;;;5026086;28;20056;-71
2022/09/24 07:12:34;;;;;;;13.30;1.77;;;13.80;99.90;;;;;;5008543;28;20056;-71
2022/09/24 07:15:00;;;;;;;12.40;1.90;;;13.80;99.90;;;;;;5040587;28;20083;-71
2022/09/24 07:17:27;;;;;;;14.73;2.13;;;13.80;99.90;;;;;;5024342;28;20077;-71
2022/09/24 07:19:53;;;;;;;15.15;2.00;;;13.80;99.90;;;;;;5056518;28;20331;-71
2022/09/24 07:22:20;;;;;;;14.90;1.75;;;13.80;99.90;;;;;;5025745;28;20037;-71
2022/09/24 07:24:45;;;;;;;17.15;2.15;;;13.80;99.90;;;;;;5026292;28;20115;-71
2022/09/24 07:27:12;;;;;;;15.45;2.30;;;13.80;99.90;;;;;;5024591;28;20045;-71
2022/09/24 07:29:38;;;;;;;13.45;2.13;;;13.80;99.90;;;;;;5025547;28;20037;-71
2022/09/24 07:32:04;;;;;;;18.05;1.70;;;13.80;99.90;;;;;;5024543;28;20041;-71
2022/09/24 07:34:29;;;;;;;16.40;1.98;;;13.90;99.90;;;;;;5024058;28;20037;-71
2022/09/24 07:36:56;;;;;;;13.98;1.98;;;13.90;99.90;;;;;;5023804;28;20051;-71
2022/09/24 07:39:22;;;;;;;14.50;1.67;;;13.90;99.90;;;;;;5041854;28;20041;-71
2022/09/24 07:41:51;;;;;;;16.50;2.03;;;13.80;99.90;;;;;;5023148;28;20057;-71
2022/09/24 07:44:19;;;;;;;12.98;1.80;;;13.90;99.90;;;;;;5023973;28;20576;-71
2022/09/24 07:46:49;;;;;;;16.30;2.00;;;14.00;99.90;;;;;;5023904;28;20492;-71
2022/09/24 07:49:15;;;;;;;9.07;1.67;;;13.90;99.90;;;;;;5025908;28;20110;-72
2022/09/24 07:51:41;;;;;;;17.50;2.25;;;14.00;99.90;;;;;;5024734;28;20042;-71
2022/09/24 07:54:07;;;;;;;16.60;2.05;;;14.00;99.90;;;;;;5023328;28;20380;-71
2022/09/24 07:56:34;;;;;;;11.07;1.50;;;14.00;99.90;;;;;;5020823;28;20498;-72
2022/09/24 07:58:59;;;;;;;16.33;2.00;;;14.00;99.90;;;;;;5020307;28;20103;-71
2022/09/24 08:01:26;;;;;;;12.75;2.75;;;14.00;99.90;;;;;;5047324;28;20050;-72
2022/09/24 08:03:52;;;;;;;12.50;2.50;;;14.00;99.90;;;;;;5021537;28;20334;-71
2022/09/24 08:06:20;;;;;;;14.55;2.42;;;14.00;99.90;;;;;;5025790;28;20037;-72
2022/09/24 08:08:49;;;;;;;13.98;1.88;;;14.00;99.90;;;;;;5020238;28;20081;-72
2022/09/24 08:11:18;;;;;;;17.67;1.88;;;14.10;99.90;;;;;;5021224;28;20132;-72
2022/09/24 08:13:44;;;;;;;10.63;1.45;;;14.10;99.90;;;;;;5053815;28;20056;-72
2022/09/24 08:16:10;;;;;;;18.48;1.98;;;14.10;99.90;;;;;;5039432;28;20030;-72
2022/09/24 08:18:36;;;;;;;10.63;2.00;;;14.10;99.90;;;;;;5003949;28;20085;-72
2022/09/24 08:21:08;;;;;;;10.15;1.67;;;14.10;99.90;;;;;;5018751;28;20079;-74
2022/09/24 08:23:35;;;;;;;17.42;2.00;;;14.10;99.90;;;;;;5002575;28;20037;-71
2022/09/24 08:26:04;;;;;;;8.25;1.80;;;14.10;99.90;;;;;;5022177;28;20045;-72
2022/09/24 08:28:30;;;;;;;21.88;3.47;;;14.10;99.90;;;;;;5035372;28;20124;-72
2022/09/24 08:31:01;;;;;;;11.38;1.70;;;14.10;99.90;;;;;;5021818;28;20860;-71
2022/09/24 08:33:27;;;;;;;;;;;14.10;99.90;;;;;;5019514;28;20049;-72
2022/09/24 08:35:54;;;;;;;10.55;1.48;;;14.10;99.90;;;;;;5040440;28;19975;-72
2022/09/24 08:38:20;;;;;;;17.88;1.60;;;14.10;99.90;;;;;;5023728;28;20049;-72
2022/09/24 08:41:08;;;;;;;14.90;1.95;;;14.10;99.90;;;;;;5025672;28;20048;-72
2022/09/24 08:43:45;;;;;;;13.07;1.90;;;14.10;99.90;;;;;;5025638;28;20045;-72
2022/09/24 08:49:44;;;;;;;14.73;1.58;;;14.20;99.90;;;;;;5041274;28;20049;-73
2022/09/24 08:52:48;;;;;;;8.93;1.63;;;14.20;99.90;;;;;;5023149;28;20056;-72
2022/09/24 08:55:20;;;;;;;9.98;1.67;;;14.20;99.90;;;;;;5023502;28;20037;-71
2022/09/24 08:58:09;;;;;;;14.90;2.38;;;14.20;99.90;;;;;;5024678;28;20106;-72
2022/09/24 09:01:07;;;;;;;14.43;2.05;;;14.20;99.90;;;;;;5022876;28;20081;-72
2022/09/24 09:03:51;;;;;;;12.70;1.73;;;14.20;99.90;;;;;;5023905;28;20132;-72
2022/09/24 09:06:56;;;;;;;11.00;1.50;;;14.30;99.90;;;;;;5024699;28;20041;-73
2022/09/24 09:09:37;;;;;;;10.02;1.33;;;14.30;99.90;;;;;;5022916;28;20136;-72
2022/09/24 09:12:09;;;;;;;14.00;1.85;;;14.30;99.90;;;;;;5026572;28;20038;-72
2022/09/24 09:14:56;;;;;;;14.23;1.80;;;14.30;99.90;;;;;;5021361;28;20083;-72
2022/09/24 09:17:41;;;;;;;11.23;1.70;;;14.30;99.90;;;;;;5019789;28;20064;-71
2022/09/24 09:20:31;;;;;;;10.23;1.73;;;14.30;99.90;;;;;;5019076;28;20042;-73
2022/09/24 09:23:09;;;;;;;13.60;1.73;;;14.30;99.90;;;;;;5014490;28;20064;-72
2022/09/24 09:25:35;;;;;;;12.68;1.52;;;14.30;99.90;;;;;;5035971;28;20057;-72
2022/09/24 09:28:14;;;;;;;14.82;1.77;;;14.40;99.90;;;;;;5013142;28;20042;-71
2022/09/24 09:30:55;;;;;;;8.27;1.42;;;14.40;99.90;;;;;;5023595;28;20523;-72
2022/09/24 09:33:30;;;;;;;;;;;14.40;99.90;;;;;;5012823;28;20046;-71
2022/09/24 09:36:02;;;;;;;14.52;2.08;;;14.40;99.90;;;;;;4997419;28;19929;-73
2022/09/24 09:38:48;;;;;;;13.48;1.65;;;14.40;99.90;;;;;;5001123;28;20708;-72
2022/09/24 09:41:19;;;;;;;14.32;2.15;;;14.50;99.90;;;;;;5006772;28;20054;-72
2022/09/24 09:43:45;;;;;;;10.13;1.45;;;14.50;99.90;;;;;;5013257;28;20075;-71
2022/09/24 09:46:19;;;;;;;12.77;1.90;;;14.50;99.90;;;;;;5019807;28;20478;-72
2022/09/24 09:48:48;;;;;;;9.25;1.40;;;14.50;99.90;;;;;;5021036;28;20787;-70
2022/09/24 09:51:19;;;;;;;13.45;2.00;;;14.50;99.90;;;;;;5015972;28;20045;-71
2022/09/24 09:54:00;;;;;;;11.40;1.90;;;14.50;99.90;;;;;;5012540;28;20126;-72
2022/09/24 09:56:42;;;;;;;10.77;1.77;;;14.50;99.90;;;;;;5031339;28;20049;-72
2022/09/24 09:59:18;;;;;;;15.95;2.08;;;14.60;99.90;;;;;;5019820;28;20107;-71
2022/09/24 10:01:47;;;;;;;15.02;2.10;;;14.60;99.90;;;;;;5017413;28;20411;-71
2022/09/24 10:04:38;;;;;;;7.10;1.90;;;14.60;99.90;;;;;;5004355;28;20601;-71
2022/09/24 10:07:12;;;;;;;14.30;2.00;;;14.70;99.90;;;;;;5020306;28;20045;-72
2022/09/24 10:09:41;;;;;;;13.55;2.10;;;14.70;99.90;;;;;;5013881;28;20150;-71
2022/09/24 10:12:21;;;;;;;11.00;1.77;;;14.70;99.90;;;;;;5020012;28;20049;-72
2022/09/24 10:15:00;;;;;;;9.90;1.70;;;14.70;99.90;;;;;;5017524;28;20124;-71
2022/09/24 10:17:47;;;;;;;11.85;1.90;;;14.60;99.90;;;;;;5001270;28;20064;-72
2022/09/24 10:20:20;;;;;;;9.68;1.15;;;14.50;99.90;;;;;;5057084;28;20056;-72
2022/09/24 10:22:52;;;;;;;11.40;2.00;;;14.50;99.90;;;;;;5020704;28;20144;-72
2022/09/24 10:25:25;;;;;;;9.50;1.83;;;14.50;99.90;;;;;;5006860;28;20042;-70
2022/09/24 10:30:32;;;;;;;12.63;1.50;;;14.40;99.90;;;;;;5020648;28;20045;-72
2022/09/24 10:31:12;;;;;;;16.67;1.92;;;14.50;99.90;;;;;;5023090;28;20049;-71
2022/09/24 10:33:44;;;;;;;12.02;1.83;;;14.50;99.90;;;;;;5020864;28;20457;-71
2022/09/24 10:36:21;;;;;;;9.00;1.40;;;14.50;99.90;;;;;;5021653;28;20042;-72
2022/09/24 10:38:47;;;;;;;9.40;1.35;;;14.50;99.90;;;;;;5053443;28;20049;-72
2022/09/24 10:41:28;;;;;;;10.35;1.50;;;14.50;99.90;;;;;;5006471;28;20514;-72
2022/09/24 10:43:56;;;;;;;10.77;1.55;;;14.40;99.90;;;;;;5053156;28;20513;-71
2022/09/24 10:46:25;;;;;;;9.23;1.50;;;14.40;99.90;;;;;;5022036;28;20454;-72
2022/09/24 10:48:59;;;;;;;9.98;1.17;;;14.40;99.90;;;;;;5012875;28;20433;-71
2022/09/24 10:51:44;;;;;;;7.93;1.48;;;14.40;99.90;;;;;;5021664;28;20048;-72
2022/09/24 10:54:57;;;;;;;11.88;2.00;;;14.40;99.90;;;;;;5054769;28;20083;-70
2022/09/24 10:57:38;;;;;;;14.45;2.65;;;14.40;99.90;;;;;;5019881;28;20242;-72
2022/09/24 11:00:10;;;;;;;10.15;1.50;;;14.50;99.90;;;;;;5015439;28;20116;-73
2022/09/24 11:03:03;;;;;;;11.32;1.40;;;14.40;99.90;;;;;;5007539;28;20041;-72
2022/09/24 11:06:01;;;;;;;14.82;2.35;;;14.50;99.90;;;;;;5014677;28;20053;-71
2022/09/24 11:09:11;;;;;;;15.50;1.60;;;14.40;99.90;;;;;;5020733;28;20110;-71
2022/09/24 11:11:49;;;;;;;12.32;1.60;;;14.50;99.90;;;;;;5009027;28;20072;-72
2022/09/24 11:14:36;;;;;;;10.88;1.50;;;14.50;99.90;;;;;;5016999;28;20054;-72
2022/09/24 11:17:15;;;;;;;14.98;2.30;;;14.50;99.90;;;;;;5035499;28;20049;-72
2022/09/24 11:20:06;;;;;;;18.20;2.40;;;14.50;99.90;;;;;;5003568;28;20595;-72
2022/09/24 11:22:50;;;;;;;14.90;2.55;;;14.50;99.90;;;;;;5018230;28;20510;-71
2022/09/24 11:25:45;;;;;;;11.57;1.88;;;14.50;99.90;;;;;;5051666;28;20508;-71
2022/09/24 11:28:29;;;;;;;16.75;1.60;;;14.40;99.90;;;;;;5050042;28;20092;-71
2022/09/24 11:31:06;;;;;;;11.88;1.40;;;14.30;99.90;;;;;;5020766;28;20091;-72
2022/09/24 11:33:59;;;;;;;12.73;1.80;;;14.30;99.90;;;;;;5019943;28;20045;-72
2022/09/24 11:36:40;;;;;;;12.57;1.50;;;14.30;99.90;;;;;;5018268;28;20041;-73
2022/09/24 11:39:30;;;;;;;6.60;1.40;;;14.30;99.90;;;;;;5019405;28;20044;-72
2022/09/24 11:42:15;;;;;;;13.70;2.35;;;14.30;99.90;;;;;;5020981;28;20659;-72
2022/09/24 11:45:16;;;;;;;11.27;1.90;;;14.30;99.90;;;;;;5031493;28;20048;-71
2022/09/24 11:47:45;;;;;;;9.95;1.63;;;14.30;99.90;;;;;;5018852;28;20072;-72
2022/09/24 11:50:38;;;;;;;11.60;1.80;;;14.20;99.90;;;;;;5016070;28;20049;-72
2022/09/24 11:53:24;;;;;;;13.70;1.80;;;14.20;99.90;;;;;;5019571;28;20049;-72
2022/09/24 11:56:01;;;;;;;14.27;1.92;;;14.30;99.90;;;;;;5019905;28;20034;-73
2022/09/24 11:58:42;;;;;;;12.45;2.47;;;14.30;99.90;;;;;;5019013;28;20140;-72
2022/09/24 12:01:23;;;;;;;7.97;1.40;;;14.30;99.90;;;;;;4999852;28;20063;-72
2022/09/24 12:04:10;;;;;;;12.90;2.15;;;14.40;99.90;;;;;;5012229;28;20049;-72
2022/09/24 12:06:53;;;;;;;15.57;1.80;;;14.40;99.90;;;;;;5017453;28;20571;-72
2022/09/24 12:09:32;;;;;;;8.23;1.20;;;14.40;99.90;;;;;;5017080;28;20046;-73
2022/09/24 12:12:19;;;;;;;13.38;1.48;;;14.50;99.90;;;;;;5022941;28;20180;-73
2022/09/24 12:15:19;;;;;;;9.40;1.50;;;14.50;99.90;;;;;;5020019;28;20051;-73
2022/09/24 12:17:49;;;;;;;11.73;2.60;;;14.50;99.90;;;;;;5039077;28;20036;-73
2022/09/24 12:20:15;;;;;;;13.10;2.05;;;14.50;99.90;;;;;;5018593;28;20057;-73
2022/09/24 12:22:42;;;;;;;10.32;2.05;;;14.50;99.90;;;;;;5037748;28;20043;-72
2022/09/24 12:25:11;;;;;;;13.90;1.92;;;14.50;99.90;;;;;;5032720;28;20049;-73
2022/09/24 12:27:38;;;;;;;12.85;1.45;;;14.50;99.90;;;;;;5019377;28;20793;-72
2022/09/24 12:34:04;;;;;;;11.15;1.55;;;14.50;99.90;;;;;;5039807;28;20053;-73
2022/09/24 12:36:55;;;;;;;8.75;1.50;;;14.50;99.90;;;;;;5018844;28;20045;-72
2022/09/24 12:39:27;;;;;;;10.05;1.27;;;14.50;99.90;;;;;;5025161;28;20045;-73
2022/09/24 12:42:03;;;;;;;11.77;2.17;;;14.50;99.90;;;;;;5023841;28;20037;-73
2022/09/24 12:44:48;;;;;;;10.30;1.48;;;14.60;99.90;;;;;;5024772;28;20041;-72
2022/09/24 12:47:20;;;;;;;10.07;1.48;;;14.60;99.90;;;;;;5004120;28;20140;-74
2022/09/24 12:49:58;;;;;;;13.68;2.00;;;14.60;99.90;;;;;;5005213;28;20498;-73
2022/09/24 12:52:39;;;;;;;13.38;2.05;;;14.50;99.90;;;;;;5039514;28;20049;-73
2022/09/24 12:55:25;;;;;;;8.48;1.58;;;14.50;99.90;;;;;;5023357;28;20049;-73
2022/09/24 12:57:51;;;;;;;8.95;1.52;;;14.40;99.90;;;;;;5005525;28;20037;-73
2022/09/24 13:00:41;;;;;;;10.30;1.38;;;14.30;99.90;;;;;;5036246;28;20096;-73
2022/09/24 13:03:34;;;;;;;10.25;2.10;;;14.30;99.90;;;;;;5022635;28;20731;-72
2022/09/24 13:06:00;;;;;;;10.13;1.95;;;14.30;99.90;;;;;;5023535;28;20051;-72
2022/09/24 13:08:35;;;;;;;11.93;1.60;;;14.20;99.90;;;;;;5023641;28;20144;-72
2022/09/24 13:11:04;;;;;;;11.88;2.15;;;14.10;99.90;;;;;;5052754;28;20041;-73
2022/09/24 13:13:39;;;;;;;15.50;1.77;;;14.10;99.90;;;;;;5023993;28;20052;-71
2022/09/24 13:16:25;;;;;;;9.95;1.55;;;13.90;99.90;;;;;;5025302;28;20123;-73